Aérodrome :
LOGIN :

S'inscrire | Disclaimer

   EN    FR    IT 

 










Légende :    VFR   VFR Marginal   IFR   IFR Intensif   IFR Très Intensif
Visi : 
Plafond : 
>= 8 km
>= 3000ft
5 à 8 km
1000 à 3000 ft
1500m à 5 km
500 à 1000 ft
800 à 1500m
200 à 500 ft
< 800m
< 200 ft
Symboles :   Orages  Brouillard  Fortes neiges  Fortes précipitations  Vent > 20 kt
SIGMETs :   Divers  Orages  Givrage  Turbulence  Onde Orograph.  Cendres Volcan.







- Altitude de l'aérodrome : 74 ft
- Code IATA : MRS
- Voir les cartes d'approche


LFML - Marseille / Marignane

DERNIER METAR :
  • 281000Z AUTO 28007KT CAVOK 25/14 Q1003 NOSIG

METARs EXPIRÉS :
  • 280930Z AUTO 28007KT 9999 ///CB 24/14 Q1003 BECMG NSC
  • 280900Z AUTO 28009KT 9999 VCTS ///CB 23/13 Q1004 TEMPO NSW BECMG NSC
  • 280830Z AUTO 26007KT 230V290 9999 FEW016/// BKN074/// BKN100/// ///TCU 24/14 Q1004 BECMG NSC
  • 280800Z AUTO VRB03KT CAVOK 23/14 Q1003 TEMPO 3000 SHRA SCT025TCU
  • 280730Z AUTO 31004KT 270V360 CAVOK 23/13 Q1003 TEMPO 3000 SHRA SCT025TCU

TAF AMD TAF LFML
Valide du 28 à 09h jusqu'au 29 à 15h UTC


280958Z 2809/2915 29006KT CAVOK
TEMPO 2809/2811 SHRA SCT018TCU
PROB30
TEMPO 2818/2821 VRB15G25KT SHRA SCT030TCU
BECMG 2907/2909 27015G25KT TX27/2812Z TN17/2904Z
ATIS : +33 4 42 31 15 15
Pas de NOTAMs connus pour ce terrain.
2 SIGMETs publiés pour la FIR Marseille (LFMM) :
 
Orages noyés dans la masse
LFMM SIGMET 8 VALID 280940/281100 LFPW
LFMM MARSEILLE FIR/UIR EMBD TS FCST WI N4415 E00500 - N4445 E00700 - N4345 E00700 - N4315 E00600 - N4330 E00515 TOP FL330 MOV NE 25KT INTSF=
Orages noyés dans la masse
LFMM SIGMET 7 VALID 280900/281100 LFPW
LFMM MARSEILLE FIR/UIR EMBD TS OBS AT 0900Z WI N4145 E00500 - N4230 E00500 - N4230 E00615 - N4145 E00615 TOP FL330 MOV NE 25KT NC=



MET'MAP, la Météo Aéronautique d'un coup d'oeil ! - Copyright ORBIFLY Décembre 2007 - Disclaimer

ORBIFLY MET'MAP TEAM :

Programmation & Développement : Alexandra Zaïnal
Conception & Développement : Baudouin d'Aumeries
Co-Programmation & Développement : Marc-Olivier Méhu
Soutien technique & logistique : Manuel Goepfert

Contact : metmap@orbifly.com




SOURCES & CREDITS :

   NOAA